createdAt,value
2023-01-19T00:00:50.944Z,95.02
2023-01-19T00:03:17.977Z,95.50
2023-01-19T00:05:45.449Z,95.08
2023-01-19T00:08:15.725Z,95.05
2023-01-19T00:10:45.029Z,94.17
2023-01-19T00:13:11.681Z,95.12
2023-01-19T00:15:38.309Z,95.63
2023-01-19T00:18:05.403Z,95.41
2023-01-19T00:20:35.677Z,95.10
2023-01-19T00:23:04.661Z,94.99
2023-01-19T00:25:31.213Z,94.48
2023-01-19T00:27:59.805Z,92.98
2023-01-19T00:30:27.063Z,94.15
2023-01-19T00:32:53.601Z,94.22
2023-01-19T00:35:20.087Z,93.63
2023-01-19T00:37:46.678Z,94.17
2023-01-19T00:40:14.136Z,93.81
2023-01-19T00:42:41.029Z,93.32
2023-01-19T00:45:09.756Z,93.86
2023-01-19T00:47:36.878Z,94.72
2023-01-19T00:50:03.734Z,94.38
2023-01-19T00:52:30.239Z,94.04
2023-01-19T00:54:56.780Z,94.49
2023-01-19T00:57:23.581Z,94.27
2023-01-19T00:59:50.312Z,94.19
2023-01-19T01:02:17.031Z,92.87
2023-01-19T01:04:43.763Z,93.21
2023-01-19T01:07:10.294Z,93.87
2023-01-19T01:09:36.985Z,94.19
2023-01-19T01:12:03.829Z,94.17
2023-01-19T01:14:32.695Z,94.75
2023-01-19T01:16:59.363Z,93.44
2023-01-19T01:19:26.139Z,94.05
2023-01-19T01:21:52.668Z,93.89
2023-01-19T01:24:19.218Z,94.24
2023-01-19T01:26:46.050Z,94.58
2023-01-19T01:29:12.657Z,94.95
2023-01-19T01:31:39.171Z,94.72
2023-01-19T01:34:05.915Z,93.14
2023-01-19T01:36:33.565Z,94.34
2023-01-19T01:39:00.325Z,93.87
2023-01-19T01:41:27.527Z,93.87
2023-01-19T01:44:02.883Z,95.15
2023-01-19T01:46:31.755Z,95.82
2023-01-19T01:49:10.304Z,96.28
2023-01-19T01:51:48.164Z,95.69
2023-01-19T01:54:28.383Z,96.57
2023-01-19T01:57:00.495Z,96.77
2023-01-19T01:59:34.824Z,97.05
2023-01-19T02:02:23.784Z,96.66
2023-01-19T02:04:54.396Z,97.12
2023-01-19T02:07:51.986Z,97.60
2023-01-19T02:10:37.429Z,97.16
2023-01-19T02:13:22.615Z,96.80
2023-01-19T02:15:51.740Z,96.26
2023-01-19T02:18:20.160Z,97.22
2023-01-19T02:21:19.074Z,96.56
2023-01-19T02:23:50.986Z,95.20
2023-01-19T02:26:24.331Z,94.50
2023-01-19T02:28:57.549Z,94.39
2023-01-19T02:31:25.051Z,95.35
2023-01-19T02:33:52.749Z,95.41
2023-01-19T02:36:23.529Z,96.86
2023-01-19T02:39:01.081Z,94.77
2023-01-19T02:41:34.266Z,93.85
2023-01-19T02:44:01.527Z,94.84
2023-01-19T02:46:28.102Z,94.57
2023-01-19T02:48:59.262Z,94.05
2023-01-19T02:51:27.072Z,94.01
2023-01-19T02:54:20.264Z,92.64
2023-01-19T02:57:01.688Z,92.96
2023-01-19T02:59:41.216Z,91.64
2023-01-19T03:02:26.565Z,90.67
2023-01-19T03:05:34.924Z,92.02
2023-01-19T03:08:29.656Z,92.03
2023-01-19T03:11:09.962Z,93.28
2023-01-19T03:13:49.271Z,92.41
2023-01-19T03:16:25.242Z,92.94
2023-01-19T03:18:55.785Z,92.54
2023-01-19T03:21:26.674Z,90.50
2023-01-19T03:23:58.060Z,90.03
2023-01-19T03:26:30.188Z,90.76
2023-01-19T03:29:00.349Z,89.20
2023-01-19T03:31:31.836Z,88.13
2023-01-19T03:34:03.602Z,89.29
2023-01-19T03:36:35.506Z,90.87
2023-01-19T03:39:05.137Z,91.22
2023-01-19T03:41:34.281Z,88.33
2023-01-19T03:44:01.645Z,87.50
2023-01-19T03:46:28.774Z,90.29
2023-01-19T03:48:57.046Z,89.25
2023-01-19T03:51:23.597Z,89.72
2023-01-19T03:53:50.113Z,89.69
2023-01-19T03:56:23.916Z,90.75
2023-01-19T03:58:51.368Z,91.64
2023-01-19T04:01:22.904Z,91.14
2023-01-19T04:03:50.550Z,91.42
2023-01-19T04:06:17.570Z,91.43
2023-01-19T04:08:44.581Z,91.73
2023-01-19T04:11:11.612Z,90.26
2023-01-19T04:13:38.468Z,86.07
2023-01-19T04:16:05.781Z,87.55
2023-01-19T04:18:34.849Z,88.45
2023-01-19T04:21:03.399Z,89.36
2023-01-19T04:23:30.029Z,88.72
2023-01-19T04:26:00.676Z,89.00
2023-01-19T04:28:27.629Z,86.08
2023-01-19T04:30:54.681Z,86.01
2023-01-19T04:33:22.479Z,85.06
2023-01-19T04:35:52.273Z,85.79
2023-01-19T04:38:20.599Z,85.57
2023-01-19T04:40:49.056Z,86.82
2023-01-19T04:43:15.814Z,87.58
2023-01-19T04:45:44.784Z,87.21
2023-01-19T04:48:12.190Z,87.02
2023-01-19T04:50:39.139Z,86.66
2023-01-19T04:53:05.689Z,86.93
2023-01-19T04:55:32.135Z,88.64
2023-01-19T04:57:58.672Z,89.21
2023-01-19T05:00:26.832Z,87.73
2023-01-19T05:02:53.958Z,87.22
2023-01-19T05:05:20.539Z,86.76
2023-01-19T05:07:47.012Z,89.44
2023-01-19T05:10:13.605Z,85.41
2023-01-19T05:12:40.189Z,84.33
2023-01-19T05:15:07.792Z,84.92
2023-01-19T05:17:34.557Z,84.31
2023-01-19T05:20:01.098Z,84.97
2023-01-19T05:22:27.601Z,84.84
2023-01-19T05:24:54.410Z,86.10
2023-01-19T05:27:21.045Z,85.66
2023-01-19T05:29:47.574Z,83.47
2023-01-19T05:32:14.088Z,83.41
2023-01-19T05:34:40.915Z,83.98
2023-01-19T05:37:07.430Z,84.35
2023-01-19T05:39:34.117Z,83.19
2023-01-19T05:42:00.586Z,83.90
2023-01-19T05:44:27.172Z,84.72
2023-01-19T05:46:53.665Z,85.11
2023-01-19T05:49:20.102Z,85.70
2023-01-19T05:51:46.657Z,84.64
2023-01-19T05:54:15.414Z,84.26
2023-01-19T05:56:42.933Z,85.29
2023-01-19T05:59:10.536Z,84.80
2023-01-19T06:01:39.894Z,84.43
2023-01-19T06:04:06.563Z,84.29
2023-01-19T06:06:33.116Z,86.21
2023-01-19T06:08:59.623Z,85.89
2023-01-19T06:11:26.231Z,85.45
2023-01-19T06:13:52.970Z,83.82
2023-01-19T06:16:19.585Z,84.41
2023-01-19T06:18:46.128Z,85.34
2023-01-19T06:21:14.258Z,88.58
2023-01-19T06:23:40.929Z,92.11
2023-01-19T06:26:07.821Z,84.83
2023-01-19T06:28:34.423Z,82.97
2023-01-19T06:31:01.787Z,84.23
2023-01-19T06:33:28.635Z,84.53
2023-01-19T06:35:55.965Z,84.78
2023-01-19T06:38:22.573Z,85.10
2023-01-19T06:41:00.106Z,83.11
2023-01-19T06:43:26.853Z,91.00
2023-01-19T06:45:53.566Z,84.66
2023-01-19T06:48:20.542Z,83.28
2023-01-19T06:50:48.430Z,81.35
2023-01-19T06:53:16.693Z,82.81
2023-01-19T06:55:44.098Z,81.92
2023-01-19T06:58:11.503Z,82.71
2023-01-19T07:00:38.511Z,82.77
2023-01-19T07:03:09.005Z,83.64
2023-01-19T07:05:36.470Z,83.03
2023-01-19T07:08:03.990Z,83.40
2023-01-19T07:11:25.420Z,84.05
2023-01-19T07:13:17.522Z,85.57
2023-01-19T07:15:44.146Z,84.24
2023-01-19T07:18:10.730Z,83.72
2023-01-19T07:20:40.480Z,100.00
2023-01-19T07:23:06.956Z,85.55
2023-01-19T07:25:33.463Z,83.79
2023-01-19T07:28:00.222Z,83.18
2023-01-19T07:30:27.026Z,84.51
2023-01-19T07:32:58.071Z,83.54
2023-01-19T07:35:25.700Z,85.16
2023-01-19T07:37:52.225Z,86.72
2023-01-19T07:40:18.845Z,84.86
2023-01-19T07:42:49.379Z,84.51
2023-01-19T07:45:17.549Z,83.46
2023-01-19T07:47:48.958Z,82.74
2023-01-19T07:50:17.054Z,82.76
2023-01-19T07:52:44.648Z,79.99
2023-01-19T07:55:11.265Z,78.26
2023-01-19T07:57:37.756Z,78.62
2023-01-19T08:00:05.051Z,79.64
2023-01-19T08:02:34.007Z,79.04
2023-01-19T08:05:00.556Z,79.62
2023-01-19T08:07:27.105Z,78.34
2023-01-19T08:09:53.769Z,79.40
2023-01-19T08:12:20.379Z,77.31
2023-01-19T08:14:46.970Z,76.83
2023-01-19T08:17:13.903Z,78.07
2023-01-19T08:19:41.640Z,77.54
2023-01-19T08:22:08.248Z,76.97
2023-01-19T08:24:34.715Z,78.20
2023-01-19T08:27:02.716Z,76.63
2023-01-19T08:29:33.615Z,75.53
2023-01-19T08:32:02.254Z,73.27
2023-01-19T08:34:32.935Z,71.72
2023-01-19T08:36:59.686Z,70.51
2023-01-19T08:39:27.478Z,69.67
2023-01-19T08:41:54.588Z,67.25
2023-01-19T08:44:21.125Z,68.18
2023-01-19T08:46:48.018Z,66.57
2023-01-19T08:49:14.641Z,66.37
2023-01-19T08:51:41.194Z,63.60
2023-01-19T08:54:07.869Z,58.61
2023-01-19T08:56:34.406Z,58.37
2023-01-19T08:59:09.138Z,56.46
2023-01-19T09:01:37.396Z,55.93
2023-01-19T09:04:04.452Z,54.80
2023-01-19T09:06:31.006Z,53.37
2023-01-19T09:08:57.786Z,53.74
2023-01-19T09:11:24.333Z,53.33
2023-01-19T09:13:51.132Z,49.47
2023-01-19T09:16:18.207Z,49.34
2023-01-19T09:18:45.957Z,49.08
2023-01-19T09:21:12.629Z,47.81
2023-01-19T09:23:39.274Z,46.72
2023-01-19T09:26:06.621Z,48.80
2023-01-19T09:28:33.594Z,47.83
2023-01-19T09:31:05.542Z,48.48
2023-01-19T09:33:32.103Z,45.79
2023-01-19T09:35:58.675Z,44.88
2023-01-19T09:38:25.949Z,45.17
2023-01-19T09:40:57.219Z,45.71
2023-01-19T09:43:41.485Z,44.60
2023-01-19T09:46:32.733Z,46.98
2023-01-19T09:49:05.074Z,47.30
2023-01-19T09:51:41.013Z,45.38
2023-01-19T09:54:17.189Z,47.11
2023-01-19T09:56:51.338Z,47.01
2023-01-19T09:59:26.527Z,43.59
2023-01-19T10:02:11.592Z,43.66
2023-01-19T10:04:42.026Z,43.42
2023-01-19T10:07:35.759Z,45.48
2023-01-19T10:10:23.159Z,49.55
2023-01-19T10:13:24.947Z,49.24
2023-01-19T10:16:31.521Z,48.34
2023-01-19T10:19:08.341Z,47.55
2023-01-19T10:21:41.897Z,46.94
2023-01-19T10:24:21.083Z,46.57
2023-01-19T10:26:52.472Z,43.56
2023-01-19T10:29:25.725Z,42.46
2023-01-19T10:31:55.327Z,41.09
2023-01-19T10:34:23.914Z,42.67
2023-01-19T10:36:58.271Z,45.08
2023-01-19T10:39:24.891Z,43.56
2023-01-19T10:41:53.489Z,44.56
2023-01-19T10:44:25.870Z,46.89
2023-01-19T10:46:54.446Z,45.19
2023-01-19T10:49:31.318Z,44.17
2023-01-19T10:51:59.913Z,41.67
2023-01-19T10:54:29.995Z,43.56
2023-01-19T10:57:03.486Z,42.39
2023-01-19T10:59:31.796Z,41.23
2023-01-19T11:02:17.721Z,40.98
2023-01-19T11:04:47.710Z,39.38
2023-01-19T11:07:21.514Z,41.03
2023-01-19T11:09:49.594Z,41.00
2023-01-19T11:12:18.908Z,42.10
2023-01-19T11:14:46.584Z,41.06
2023-01-19T11:17:31.145Z,43.06
2023-01-19T11:20:02.569Z,41.70
2023-01-19T11:22:33.086Z,42.62
2023-01-19T11:25:04.827Z,41.11
2023-01-19T11:27:34.595Z,39.60
2023-01-19T11:30:10.432Z,40.47
2023-01-19T11:32:37.251Z,42.31
2023-01-19T11:35:37.795Z,43.65
2023-01-19T11:38:18.272Z,42.59
2023-01-19T11:40:59.087Z,46.56
2023-01-19T11:43:39.759Z,46.83
2023-01-19T11:46:15.331Z,50.03
2023-01-19T11:49:02.097Z,48.67
2023-01-19T11:51:35.493Z,49.75
2023-01-19T11:54:07.615Z,50.19
2023-01-19T11:56:35.170Z,49.87
2023-01-19T11:59:02.778Z,48.65
2023-01-19T12:01:34.225Z,48.97
2023-01-19T12:04:19.126Z,50.52
2023-01-19T12:06:51.224Z,51.31
2023-01-19T12:09:22.443Z,48.72
2023-01-19T12:12:08.523Z,49.94
2023-01-19T12:14:41.120Z,48.15
2023-01-19T12:17:16.570Z,48.21
2023-01-19T12:19:53.433Z,47.09
2023-01-19T12:22:23.807Z,46.28
2023-01-19T12:24:58.097Z,44.77
2023-01-19T12:27:44.141Z,44.18
2023-01-19T12:30:23.854Z,44.00
2023-01-19T12:32:53.337Z,41.58
2023-01-19T12:35:57.546Z,44.58
2023-01-19T12:38:29.903Z,44.20
2023-01-19T12:41:20.875Z,45.65
2023-01-19T12:43:49.312Z,43.32
2023-01-19T12:46:30.630Z,44.79
2023-01-19T12:49:41.559Z,46.58
2023-01-19T12:52:23.923Z,45.27
2023-01-19T12:55:07.746Z,46.20
2023-01-19T12:57:46.354Z,45.58
2023-01-19T13:00:21.882Z,46.85
2023-01-19T13:02:54.151Z,46.20
2023-01-19T13:05:32.966Z,48.24
2023-01-19T13:08:02.975Z,47.90
2023-01-19T13:11:00.714Z,49.68
2023-01-19T13:13:37.303Z,50.95
2023-01-19T13:16:19.276Z,50.45
2023-01-19T13:18:48.844Z,51.17
2023-01-19T13:21:44.667Z,54.24
2023-01-19T13:24:11.383Z,52.81
2023-01-19T13:26:52.766Z,56.23
2023-01-19T13:29:34.488Z,56.77
2023-01-19T13:32:06.727Z,55.08
2023-01-19T13:34:42.492Z,56.78
2023-01-19T13:37:19.024Z,56.38
2023-01-19T13:39:50.023Z,56.57
2023-01-19T13:42:27.808Z,57.86
2023-01-19T13:44:58.931Z,56.82
2023-01-19T13:47:34.312Z,58.79
2023-01-19T13:50:01.411Z,59.20
2023-01-19T13:52:29.233Z,58.43
2023-01-19T13:55:04.548Z,59.50
2023-01-19T13:57:42.905Z,61.22
2023-01-19T14:00:11.808Z,62.81
2023-01-19T14:02:40.335Z,62.37
2023-01-19T14:05:15.345Z,63.13
2023-01-19T14:07:42.247Z,64.03
2023-01-19T14:10:14.455Z,62.19
2023-01-19T14:12:51.315Z,63.07
2023-01-19T14:15:24.768Z,64.37
2023-01-19T14:18:23.395Z,65.46
2023-01-19T14:20:58.840Z,61.21
2023-01-19T14:23:47.726Z,62.46
2023-01-19T14:26:42.974Z,62.98
2023-01-19T14:29:27.712Z,63.52
2023-01-19T14:32:00.170Z,62.49
2023-01-19T14:34:38.963Z,63.05
2023-01-19T14:37:15.552Z,62.58
2023-01-19T14:39:46.408Z,63.98
2023-01-19T14:42:18.866Z,63.08
2023-01-19T14:44:48.848Z,63.28
2023-01-19T14:47:43.053Z,64.94
2023-01-19T14:51:01.389Z,64.26
2023-01-19T14:53:29.931Z,64.30
2023-01-19T14:56:02.833Z,63.28
2023-01-19T14:58:32.144Z,65.02
2023-01-19T15:00:59.373Z,63.67
2023-01-19T15:03:42.642Z,65.98
2023-01-19T15:06:21.186Z,65.43
2023-01-19T15:08:50.042Z,66.16
2023-01-19T15:11:31.017Z,66.58
2023-01-19T15:13:58.993Z,66.39
2023-01-19T15:16:27.669Z,65.65
2023-01-19T15:18:54.680Z,65.87
2023-01-19T15:21:28.887Z,65.75
2023-01-19T15:23:55.686Z,67.21
2023-01-19T15:26:25.248Z,65.82
2023-01-19T15:28:52.728Z,65.35
2023-01-19T15:31:22.601Z,76.33
2023-01-19T15:33:49.795Z,66.66
2023-01-19T15:36:21.446Z,66.57
2023-01-19T15:38:51.640Z,66.58
2023-01-19T15:41:27.392Z,66.84
2023-01-19T15:43:54.082Z,68.08
2023-01-19T15:46:21.473Z,68.09
2023-01-19T15:48:51.631Z,68.90
2023-01-19T15:51:20.576Z,69.19
2023-01-19T15:53:48.071Z,69.56
2023-01-19T15:56:16.460Z,66.59
2023-01-19T15:58:43.190Z,67.79
2023-01-19T16:01:18.231Z,65.23
2023-01-19T16:03:45.541Z,69.08
2023-01-19T16:06:13.231Z,71.34
2023-01-19T16:08:40.042Z,69.84
2023-01-19T16:11:09.059Z,72.52
2023-01-19T16:13:35.596Z,69.14
2023-01-19T16:16:08.099Z,74.20
2023-01-19T16:18:34.663Z,77.04
2023-01-19T16:21:01.403Z,79.06
2023-01-19T16:23:27.881Z,80.54
2023-01-19T16:25:59.942Z,80.90
2023-01-19T16:28:27.263Z,79.72
2023-01-19T16:30:54.137Z,78.90
2023-01-19T16:33:20.731Z,79.40
2023-01-19T16:35:47.396Z,79.94
2023-01-19T16:38:28.973Z,79.53
2023-01-19T16:40:55.659Z,79.83
2023-01-19T16:43:22.264Z,79.35
2023-01-19T16:46:00.733Z,80.56
2023-01-19T16:48:28.112Z,80.67
2023-01-19T16:51:05.892Z,80.59
2023-01-19T16:53:37.112Z,78.89
2023-01-19T16:56:08.500Z,79.13
2023-01-19T16:58:37.508Z,80.17
2023-01-19T17:01:17.302Z,78.63
2023-01-19T17:03:45.570Z,77.95
2023-01-19T17:06:14.818Z,78.87
2023-01-19T17:08:41.609Z,77.79
2023-01-19T17:11:20.886Z,76.54
2023-01-19T17:13:54.533Z,75.92
2023-01-19T17:16:22.085Z,74.50
2023-01-19T17:18:48.628Z,75.02
2023-01-19T17:21:19.339Z,73.88
2023-01-19T17:23:48.112Z,73.26
2023-01-19T17:26:16.044Z,73.50
2023-01-19T17:28:43.287Z,74.75
2023-01-19T17:31:12.788Z,74.03
2023-01-19T17:33:39.940Z,74.86
2023-01-19T17:36:09.699Z,73.79
2023-01-19T17:38:36.971Z,75.16
2023-01-19T17:41:12.905Z,75.83
2023-01-19T17:43:39.684Z,75.39
2023-01-19T17:46:06.235Z,76.42
2023-01-19T17:48:32.828Z,77.48
2023-01-19T17:51:07.452Z,77.71
2023-01-19T17:53:34.107Z,78.64
2023-01-19T17:56:09.395Z,78.45
2023-01-19T17:58:35.928Z,78.22
2023-01-19T18:01:11.017Z,78.03
2023-01-19T18:03:37.813Z,77.97
2023-01-19T18:06:04.597Z,78.71
2023-01-19T18:08:32.526Z,78.31
2023-01-19T18:11:00.970Z,78.43
2023-01-19T18:13:28.463Z,78.10
2023-01-19T18:16:02.732Z,78.89
2023-01-19T18:18:29.662Z,79.20
2023-01-19T18:21:07.951Z,78.36
2023-01-19T18:23:35.300Z,79.29
2023-01-19T18:26:07.081Z,79.16
2023-01-19T18:28:33.633Z,79.87
2023-01-19T18:31:00.623Z,81.22
2023-01-19T18:33:27.864Z,80.11
2023-01-19T18:35:54.907Z,80.91
2023-01-19T18:38:21.887Z,80.95
2023-01-19T18:40:48.472Z,80.92
2023-01-19T18:43:15.182Z,81.78
2023-01-19T18:45:42.123Z,82.75
2023-01-19T18:48:09.528Z,82.61
2023-01-19T18:50:37.679Z,83.88
2023-01-19T18:53:04.198Z,83.26
2023-01-19T18:55:30.777Z,83.47
2023-01-19T18:57:57.309Z,83.87
2023-01-19T19:00:23.783Z,84.43
2023-01-19T19:02:50.388Z,83.79
2023-01-19T19:05:16.901Z,84.40
2023-01-19T19:07:43.385Z,83.56
2023-01-19T19:10:10.191Z,84.88
2023-01-19T19:12:36.791Z,84.29
2023-01-19T19:15:03.595Z,83.48
2023-01-19T19:17:30.142Z,84.09
2023-01-19T19:19:56.585Z,84.56
2023-01-19T19:22:25.435Z,84.11
2023-01-19T19:24:52.317Z,84.17
2023-01-19T19:27:18.828Z,84.50
2023-01-19T19:29:48.877Z,84.69
2023-01-19T19:32:20.429Z,86.99
2023-01-19T19:34:52.863Z,86.22
2023-01-19T19:37:20.091Z,87.63
2023-01-19T19:39:47.714Z,87.18
2023-01-19T19:42:14.231Z,86.14
2023-01-19T19:44:40.747Z,84.39
2023-01-19T19:47:07.582Z,85.71
2023-01-19T19:49:34.174Z,85.65
2023-01-19T19:52:00.699Z,86.00
2023-01-19T19:54:27.186Z,85.36
2023-01-19T19:56:53.776Z,84.54
2023-01-19T19:59:20.279Z,83.96
2023-01-19T20:01:47.177Z,84.16
2023-01-19T20:04:14.058Z,85.09
2023-01-19T20:06:44.526Z,84.69
2023-01-19T20:09:15.708Z,85.54
2023-01-19T20:11:44.633Z,85.50
2023-01-19T20:14:13.094Z,84.74
2023-01-19T20:16:40.758Z,86.28
2023-01-19T20:19:07.872Z,87.16
2023-01-19T20:21:40.007Z,88.46
2023-01-19T20:24:19.007Z,88.74
2023-01-19T20:26:48.576Z,88.77
2023-01-19T20:29:15.281Z,89.05
2023-01-19T20:31:56.233Z,89.06
2023-01-19T20:34:28.074Z,88.39
2023-01-19T20:36:54.940Z,89.12
2023-01-19T20:39:23.271Z,87.87
2023-01-19T20:41:51.481Z,89.37
2023-01-19T20:44:27.113Z,89.70
2023-01-19T20:46:54.999Z,90.20
2023-01-19T20:49:21.556Z,90.62
2023-01-19T20:51:48.416Z,89.75
2023-01-19T20:54:17.273Z,89.93
2023-01-19T20:56:44.130Z,89.95
2023-01-19T20:59:11.677Z,89.98
2023-01-19T21:01:39.291Z,89.83
2023-01-19T21:04:06.145Z,89.96
2023-01-19T21:06:33.003Z,88.44
2023-01-19T21:08:59.499Z,88.19
2023-01-19T21:11:26.487Z,86.86
2023-01-19T21:13:56.033Z,86.78
2023-01-19T21:16:24.472Z,87.21
2023-01-19T21:18:51.524Z,86.94
2023-01-19T21:21:29.850Z,86.45
2023-01-19T21:23:58.611Z,86.75
2023-01-19T21:26:25.279Z,87.90
2023-01-19T21:28:51.814Z,87.31
2023-01-19T21:31:18.582Z,87.21
2023-01-19T21:33:45.410Z,85.83
2023-01-19T21:36:12.018Z,85.31
2023-01-19T21:38:39.309Z,86.43
2023-01-19T21:41:08.522Z,84.97
2023-01-19T21:43:36.782Z,86.03
2023-01-19T21:46:34.003Z,85.75
2023-01-19T21:49:02.641Z,85.94
2023-01-19T21:51:33.302Z,85.37
2023-01-19T21:54:05.843Z,86.27
2023-01-19T21:56:33.250Z,86.11
2023-01-19T21:59:04.264Z,87.59
2023-01-19T22:01:32.807Z,86.37
2023-01-19T22:03:59.514Z,87.06
2023-01-19T22:06:26.971Z,86.38
2023-01-19T22:08:54.541Z,85.47
2023-01-19T22:11:21.817Z,85.01
2023-01-19T22:13:48.593Z,85.88
2023-01-19T22:16:18.283Z,86.51
2023-01-19T22:18:46.694Z,86.59
2023-01-19T22:21:15.692Z,86.61
2023-01-19T22:23:43.041Z,86.22
2023-01-19T22:26:11.093Z,85.21
2023-01-19T22:28:38.119Z,85.78
2023-01-19T22:31:13.169Z,86.10
2023-01-19T22:33:43.023Z,86.31
2023-01-19T22:36:22.585Z,86.95
2023-01-19T22:38:57.790Z,88.03
2023-01-19T22:41:25.419Z,88.53
2023-01-19T22:43:55.112Z,89.58
2023-01-19T22:46:24.060Z,88.65
2023-01-19T22:48:50.923Z,89.62
2023-01-19T22:51:18.411Z,90.40
2023-01-19T22:53:45.274Z,90.51
2023-01-19T22:56:23.284Z,90.43
2023-01-19T22:58:50.465Z,89.56
2023-01-19T23:01:22.498Z,88.47
2023-01-19T23:03:49.877Z,88.44
2023-01-19T23:06:24.517Z,88.75
2023-01-19T23:08:51.493Z,89.77
2023-01-19T23:11:20.434Z,89.33
2023-01-19T23:13:47.198Z,89.94
2023-01-19T23:16:14.399Z,89.00
2023-01-19T23:18:42.069Z,89.04
2023-01-19T23:21:11.114Z,88.98
2023-01-19T23:23:37.962Z,88.06
2023-01-19T23:26:08.574Z,90.22
2023-01-19T23:28:36.624Z,89.26
2023-01-19T23:31:16.710Z,89.22
2023-01-19T23:33:44.217Z,89.10
2023-01-19T23:36:12.435Z,91.05
2023-01-19T23:38:39.283Z,91.17
2023-01-19T23:41:05.832Z,91.32
2023-01-19T23:43:32.482Z,91.83
2023-01-19T23:46:03.618Z,92.06
2023-01-19T23:48:30.209Z,91.55
2023-01-19T23:50:56.789Z,90.34
2023-01-19T23:53:23.373Z,89.28
2023-01-19T23:55:49.875Z,88.80
2023-01-19T23:58:16.296Z,89.40
